createdAt,value
2022-09-25T00:00:16.950Z,100.0
2022-09-25T00:01:17.548Z,100.0
2022-09-25T00:02:17.142Z,100.0
2022-09-25T00:03:17.086Z,100.0
2022-09-25T00:04:16.567Z,100.0
2022-09-25T00:05:16.997Z,100.0
2022-09-25T00:06:16.416Z,100.0
2022-09-25T00:07:16.852Z,100.0
2022-09-25T00:08:17.285Z,100.0
2022-09-25T00:09:16.720Z,100.0
2022-09-25T00:10:17.153Z,100.0
2022-09-25T00:11:16.602Z,100.0
2022-09-25T00:12:17.435Z,100.0
2022-09-25T00:13:16.930Z,100.0
2022-09-25T00:14:17.417Z,100.0
2022-09-25T00:15:16.895Z,100.0
2022-09-25T00:16:17.479Z,100.0
2022-09-25T00:17:16.965Z,100.0
2022-09-25T00:18:17.424Z,100.0
2022-09-25T00:19:16.865Z,100.0
2022-09-25T00:20:17.344Z,100.0
2022-09-25T00:21:16.765Z,100.0
2022-09-25T00:22:16.541Z,100.0
2022-09-25T00:23:16.978Z,100.0
2022-09-25T00:24:16.402Z,100.0
2022-09-25T00:25:16.827Z,100.0
2022-09-25T00:26:17.286Z,100.0
2022-09-25T00:27:16.753Z,100.0
2022-09-25T00:28:18.553Z,100.0
2022-09-25T00:29:17.021Z,100.0
2022-09-25T00:30:16.476Z,100.0
2022-09-25T00:31:17.003Z,100.0
2022-09-25T00:32:16.504Z,100.0
2022-09-25T00:33:16.952Z,100.0
2022-09-25T00:34:17.406Z,100.0
2022-09-25T00:35:16.838Z,100.0
2022-09-25T00:36:17.291Z,100.0
2022-09-25T00:37:16.713Z,100.0
2022-09-25T00:38:17.164Z,100.0
2022-09-25T00:39:16.608Z,100.0
2022-09-25T00:40:17.160Z,100.0
2022-09-25T00:41:16.625Z,100.0
2022-09-25T00:42:16.698Z,100.0
2022-09-25T00:43:17.176Z,100.0
2022-09-25T00:44:16.630Z,100.0
2022-09-25T00:45:17.092Z,100.0
2022-09-25T00:46:16.696Z,100.0
2022-09-25T00:47:17.178Z,100.0
2022-09-25T00:48:16.627Z,100.0
2022-09-25T00:49:17.120Z,100.0
2022-09-25T00:50:16.545Z,100.0
2022-09-25T00:51:16.972Z,100.0
2022-09-25T00:52:16.532Z,100.0
2022-09-25T00:53:16.986Z,100.0
2022-09-25T00:54:16.407Z,100.0
2022-09-25T00:55:16.840Z,100.0
2022-09-25T00:56:17.311Z,100.0
2022-09-25T00:57:16.763Z,100.0
2022-09-25T00:58:17.224Z,100.0
2022-09-25T00:59:16.694Z,100.0
2022-09-25T01:00:17.168Z,100.0
2022-09-25T01:01:16.757Z,100.0
2022-09-25T01:02:17.335Z,100.0
2022-09-25T01:03:16.838Z,100.0
2022-09-25T01:04:17.306Z,100.0
2022-09-25T01:05:16.926Z,100.0
2022-09-25T01:06:17.365Z,100.0
2022-09-25T01:07:16.822Z,100.0
2022-09-25T01:08:17.265Z,100.0
2022-09-25T01:09:16.690Z,100.0
2022-09-25T01:10:17.111Z,100.0
2022-09-25T01:11:16.575Z,100.0
2022-09-25T01:12:17.196Z,100.0
2022-09-25T01:13:16.646Z,100.0
2022-09-25T01:14:17.108Z,100.0
2022-09-25T01:15:16.581Z,100.0
2022-09-25T01:16:17.320Z,100.0
2022-09-25T01:17:16.843Z,100.0
2022-09-25T01:18:17.284Z,100.0
2022-09-25T01:19:16.713Z,100.0
2022-09-25T01:20:17.137Z,100.0
2022-09-25T01:21:16.596Z,100.0
2022-09-25T01:22:17.077Z,100.0
2022-09-25T01:23:16.497Z,100.0
2022-09-25T01:24:16.937Z,100.0
2022-09-25T01:25:17.395Z,100.0
2022-09-25T01:26:16.877Z,100.0
2022-09-25T01:27:17.372Z,100.0
2022-09-25T01:28:16.900Z,100.0
2022-09-25T01:29:17.358Z,100.0
2022-09-25T01:30:16.814Z,100.0
2022-09-25T01:31:17.372Z,100.0
2022-09-25T01:32:16.700Z,100.0
2022-09-25T01:33:17.157Z,100.0
2022-09-25T01:34:16.577Z,100.0
2022-09-25T01:35:17.060Z,100.0
2022-09-25T01:36:16.516Z,100.0
2022-09-25T01:37:16.956Z,100.0
2022-09-25T01:38:17.413Z,100.0
2022-09-25T01:39:16.836Z,100.0
2022-09-25T01:40:17.515Z,100.0
2022-09-25T01:41:17.015Z,100.0
2022-09-25T01:42:16.699Z,100.0
2022-09-25T01:43:17.176Z,100.0
2022-09-25T01:44:16.619Z,100.0
2022-09-25T01:45:17.107Z,100.0
2022-09-25T01:46:16.646Z,100.0
2022-09-25T01:47:17.169Z,100.0
2022-09-25T01:48:16.604Z,100.0
2022-09-25T01:49:17.057Z,100.0
2022-09-25T01:50:16.484Z,100.0
2022-09-25T01:51:16.906Z,100.0
2022-09-25T01:52:16.683Z,100.0
2022-09-25T01:53:17.109Z,100.0
2022-09-25T01:54:16.528Z,100.0
2022-09-25T01:55:17.010Z,100.0
2022-09-25T01:56:16.480Z,100.0
2022-09-25T01:57:16.978Z,100.0
2022-09-25T01:58:16.484Z,100.0
2022-09-25T01:59:16.983Z,100.0
2022-09-25T02:00:16.447Z,100.0
2022-09-25T02:01:17.069Z,100.0
2022-09-25T02:02:16.704Z,100.0
2022-09-25T02:03:17.174Z,100.0
2022-09-25T02:04:16.619Z,100.0
2022-09-25T02:05:17.057Z,100.0
2022-09-25T02:06:16.521Z,100.0
2022-09-25T02:07:16.952Z,100.0
2022-09-25T02:08:17.381Z,100.0
2022-09-25T02:09:17.069Z,100.0
2022-09-25T02:10:16.528Z,100.0
2022-09-25T02:11:17.017Z,100.0
2022-09-25T02:12:17.262Z,100.0
2022-09-25T02:13:16.730Z,100.0
2022-09-25T02:14:17.198Z,100.0
2022-09-25T02:15:16.602Z,100.0
2022-09-25T02:16:17.151Z,100.0
2022-09-25T02:17:16.653Z,100.0
2022-09-25T02:18:17.072Z,100.0
2022-09-25T02:19:16.544Z,100.0
2022-09-25T02:20:16.980Z,100.0
2022-09-25T02:21:16.405Z,100.0
2022-09-25T02:22:17.023Z,100.0
2022-09-25T02:23:16.452Z,100.0
2022-09-25T02:24:16.925Z,100.0
2022-09-25T02:25:17.399Z,100.0
2022-09-25T02:26:16.847Z,100.0
2022-09-25T02:27:17.316Z,100.0
2022-09-25T02:28:16.789Z,100.0
2022-09-25T02:29:17.280Z,100.0
2022-09-25T02:30:16.726Z,100.0
2022-09-25T02:31:17.389Z,100.0
2022-09-25T02:32:16.446Z,100.0
2022-09-25T02:33:16.877Z,100.0
2022-09-25T02:34:17.827Z,100.0
2022-09-25T02:35:16.411Z,100.0
2022-09-25T02:36:16.831Z,100.0
2022-09-25T02:37:17.267Z,100.0
2022-09-25T02:38:16.714Z,100.0
2022-09-25T02:39:17.203Z,100.0
2022-09-25T02:40:16.742Z,100.0
2022-09-25T02:41:17.252Z,100.0
2022-09-25T02:42:16.721Z,100.0
2022-09-25T02:43:17.232Z,100.0
2022-09-25T02:44:16.690Z,100.0
2022-09-25T02:45:17.139Z,100.0
2022-09-25T02:46:16.719Z,100.0
2022-09-25T02:47:17.168Z,100.0
2022-09-25T02:48:16.632Z,100.0
2022-09-25T02:49:17.057Z,100.0
2022-09-25T02:50:16.469Z,100.0
2022-09-25T02:51:16.907Z,100.0
2022-09-25T02:52:16.602Z,100.0
2022-09-25T02:53:17.045Z,100.0
2022-09-25T02:54:16.484Z,100.0
2022-09-25T02:55:16.983Z,100.0
2022-09-25T02:56:16.441Z,100.0
2022-09-25T02:57:16.899Z,100.0
2022-09-25T02:58:17.361Z,100.0
2022-09-25T02:59:16.849Z,100.0
2022-09-25T03:00:17.364Z,100.0
2022-09-25T03:01:16.986Z,100.0
2022-09-25T03:02:17.537Z,100.0
2022-09-25T03:03:17.036Z,100.0
2022-09-25T03:04:16.475Z,100.0
2022-09-25T03:05:16.906Z,100.0
2022-09-25T03:06:17.342Z,100.0
2022-09-25T03:07:16.785Z,100.0
2022-09-25T03:08:17.273Z,100.0
2022-09-25T03:09:16.710Z,100.0
2022-09-25T03:10:17.212Z,100.0
2022-09-25T03:11:16.687Z,100.0
2022-09-25T03:12:17.270Z,100.0
2022-09-25T03:13:16.730Z,100.0
2022-09-25T03:14:17.194Z,100.0
2022-09-25T03:15:16.653Z,100.0
2022-09-25T03:16:17.211Z,100.0
2022-09-25T03:17:16.661Z,100.0
2022-09-25T03:18:17.086Z,100.0
2022-09-25T03:19:16.508Z,100.0
2022-09-25T03:20:16.977Z,100.0
2022-09-25T03:21:16.406Z,100.0
2022-09-25T03:22:16.807Z,100.0
2022-09-25T03:23:17.278Z,100.0
2022-09-25T03:24:16.741Z,100.0
2022-09-25T03:25:17.214Z,100.0
2022-09-25T03:26:16.856Z,100.0
2022-09-25T03:27:17.626Z,100.0
2022-09-25T03:28:17.113Z,100.0
2022-09-25T03:29:16.564Z,100.0
2022-09-25T03:30:17.042Z,100.0
2022-09-25T03:31:16.753Z,100.0
2022-09-25T03:32:17.245Z,100.0
2022-09-25T03:33:16.666Z,100.0
2022-09-25T03:34:17.084Z,100.0
2022-09-25T03:35:16.534Z,100.0
2022-09-25T03:36:17.001Z,100.0
2022-09-25T03:37:16.433Z,100.0
2022-09-25T03:38:16.899Z,100.0
2022-09-25T03:39:17.384Z,100.0
2022-09-25T03:40:17.031Z,100.0
2022-09-25T03:41:16.574Z,100.0
2022-09-25T03:42:16.578Z,100.0
2022-09-25T03:43:17.079Z,100.0
2022-09-25T03:44:16.557Z,100.0
2022-09-25T03:45:17.022Z,100.0
2022-09-25T03:46:16.585Z,100.0
2022-09-25T03:47:17.074Z,100.0
2022-09-25T03:48:16.533Z,100.0
2022-09-25T03:49:16.970Z,100.0
2022-09-25T03:50:17.450Z,100.0
2022-09-25T03:51:16.974Z,100.0
2022-09-25T03:52:16.785Z,100.0
2022-09-25T03:53:17.253Z,100.0
2022-09-25T03:54:16.706Z,100.0
2022-09-25T03:55:17.187Z,100.0
2022-09-25T03:56:16.643Z,100.0
2022-09-25T03:57:17.089Z,100.0
2022-09-25T03:58:16.567Z,100.0
2022-09-25T03:59:17.035Z,100.0
2022-09-25T04:00:16.528Z,100.0
2022-09-25T04:01:17.118Z,100.0
2022-09-25T04:02:16.593Z,100.0
2022-09-25T04:03:17.055Z,100.0
2022-09-25T04:04:16.527Z,100.0
2022-09-25T04:05:17.004Z,100.0
2022-09-25T04:06:16.443Z,100.0
2022-09-25T04:07:16.908Z,100.0
2022-09-25T04:08:17.363Z,100.0
2022-09-25T04:09:16.857Z,100.0
2022-09-25T04:10:17.367Z,100.0
2022-09-25T04:11:16.854Z,100.0
2022-09-25T04:12:16.479Z,100.0
2022-09-25T04:13:16.967Z,100.0
2022-09-25T04:14:17.422Z,100.0
2022-09-25T04:15:17.129Z,100.0
2022-09-25T04:16:16.723Z,100.0
2022-09-25T04:17:17.223Z,100.0
2022-09-25T04:18:16.645Z,100.0
2022-09-25T04:19:17.068Z,100.0
2022-09-25T04:20:16.506Z,100.0
2022-09-25T04:21:16.994Z,100.0
2022-09-25T04:22:17.422Z,100.0
2022-09-25T04:23:16.891Z,100.0
2022-09-25T04:24:17.359Z,100.0
2022-09-25T04:25:24.490Z,100.0
2022-09-25T04:26:17.142Z,100.0
2022-09-25T04:27:16.641Z,100.0
2022-09-25T04:28:17.114Z,100.0
2022-09-25T04:29:16.601Z,100.0
2022-09-25T04:30:17.030Z,100.0
2022-09-25T04:31:16.537Z,100.0
2022-09-25T04:32:16.682Z,100.0
2022-09-25T04:33:17.135Z,100.0
2022-09-25T04:34:16.569Z,100.0
2022-09-25T04:35:17.001Z,100.0
2022-09-25T04:36:16.420Z,100.0
2022-09-25T04:37:16.877Z,100.0
2022-09-25T04:38:17.327Z,100.0
2022-09-25T04:39:16.790Z,100.0
2022-09-25T04:40:17.354Z,100.0
2022-09-25T04:41:16.892Z,100.0
2022-09-25T04:42:17.113Z,100.0
2022-09-25T04:43:16.565Z,100.0
2022-09-25T04:44:17.034Z,100.0
2022-09-25T04:45:16.493Z,100.0
2022-09-25T04:46:22.541Z,100.0
2022-09-25T04:47:17.281Z,100.0
2022-09-25T04:48:16.710Z,100.0
2022-09-25T04:49:17.153Z,100.0
2022-09-25T04:50:16.591Z,100.0
2022-09-25T04:51:17.038Z,100.0
2022-09-25T04:52:16.699Z,100.0
2022-09-25T04:53:17.159Z,100.0
2022-09-25T04:54:16.623Z,100.0
2022-09-25T04:55:17.069Z,100.0
2022-09-25T04:56:17.222Z,100.0
2022-09-25T04:57:53.902Z,100.0
2022-09-25T04:58:17.172Z,100.0
2022-09-25T04:59:16.667Z,100.0
2022-09-25T05:00:17.118Z,100.0
2022-09-25T05:01:16.811Z,100.0
2022-09-25T05:02:16.692Z,100.0
2022-09-25T05:03:17.429Z,100.0
2022-09-25T05:04:16.895Z,100.0
2022-09-25T05:05:17.335Z,100.0
2022-09-25T05:06:16.762Z,100.0
2022-09-25T05:07:17.218Z,100.0
2022-09-25T05:08:16.684Z,100.0
2022-09-25T05:09:17.172Z,100.0
2022-09-25T05:10:16.651Z,100.0
2022-09-25T05:11:17.129Z,100.0
2022-09-25T05:12:16.603Z,100.0
2022-09-25T05:13:17.091Z,100.0
2022-09-25T05:14:16.515Z,100.0
2022-09-25T05:15:16.940Z,100.0
2022-09-25T05:16:17.485Z,100.0
2022-09-25T05:17:16.940Z,100.0
2022-09-25T05:18:17.385Z,100.0
2022-09-25T05:19:16.836Z,100.0
2022-09-25T05:20:17.549Z,100.0
2022-09-25T05:21:16.966Z,100.0
2022-09-25T05:22:17.048Z,100.0
2022-09-25T05:23:16.532Z,100.0
2022-09-25T05:24:17.002Z,100.0
2022-09-25T05:25:16.493Z,100.0
2022-09-25T05:26:16.963Z,100.0
2022-09-25T05:27:17.443Z,100.0
2022-09-25T05:28:16.905Z,100.0
2022-09-25T05:29:17.332Z,100.0
2022-09-25T05:30:16.787Z,100.0
2022-09-25T05:31:17.315Z,100.0
2022-09-25T05:32:16.856Z,100.0
2022-09-25T05:33:17.273Z,100.0
2022-09-25T05:34:16.741Z,100.0
2022-09-25T05:35:17.158Z,100.0
2022-09-25T05:36:16.626Z,100.0
2022-09-25T05:37:17.082Z,100.0
2022-09-25T05:38:16.583Z,100.0
2022-09-25T05:39:17.073Z,100.0
2022-09-25T05:40:16.744Z,100.0
2022-09-25T05:41:17.277Z,100.0
2022-09-25T05:42:16.555Z,100.0
2022-09-25T05:43:16.980Z,100.0
2022-09-25T05:44:16.442Z,100.0
2022-09-25T05:45:16.867Z,100.0
2022-09-25T05:46:17.381Z,100.0
2022-09-25T05:47:16.875Z,100.0
2022-09-25T05:48:17.296Z,100.0
2022-09-25T05:49:16.771Z,100.0
2022-09-25T05:50:17.221Z,100.0
2022-09-25T05:51:16.687Z,100.0
2022-09-25T05:52:16.483Z,100.0
2022-09-25T05:53:16.974Z,100.0
2022-09-25T05:54:17.457Z,100.0
2022-09-25T05:55:16.932Z,100.0
2022-09-25T05:56:17.380Z,100.0
2022-09-25T05:57:16.817Z,100.0
2022-09-25T05:58:17.238Z,100.0
2022-09-25T05:59:16.709Z,100.0
2022-09-25T06:00:17.135Z,100.0
2022-09-25T06:01:16.558Z,100.0
2022-09-25T06:02:17.304Z,100.0
2022-09-25T06:03:16.899Z,100.0
2022-09-25T06:04:17.392Z,100.0
2022-09-25T06:05:16.873Z,100.0
2022-09-25T06:06:17.369Z,100.0
2022-09-25T06:07:16.820Z,100.0
2022-09-25T06:08:17.325Z,100.0
2022-09-25T06:09:16.777Z,100.0
2022-09-25T06:10:17.241Z,100.0
2022-09-25T06:11:16.685Z,100.0
2022-09-25T06:12:16.517Z,100.0
2022-09-25T06:13:16.938Z,100.0
2022-09-25T06:14:17.375Z,100.0
2022-09-25T06:15:16.810Z,100.0
2022-09-25T06:16:17.340Z,100.0
2022-09-25T06:17:16.771Z,100.0
2022-09-25T06:18:17.220Z,100.0
2022-09-25T06:19:16.682Z,100.0
2022-09-25T06:20:17.181Z,100.0
2022-09-25T06:21:16.668Z,100.0
2022-09-25T06:22:16.509Z,100.0
2022-09-25T06:23:16.983Z,100.0
2022-09-25T06:24:16.442Z,100.0
2022-09-25T06:25:17.024Z,100.0
2022-09-25T06:26:16.465Z,100.0
2022-09-25T06:27:16.913Z,100.0
2022-09-25T06:28:17.330Z,100.0
2022-09-25T06:29:16.752Z,100.0
2022-09-25T06:30:17.187Z,100.0
2022-09-25T06:31:16.876Z,100.0
2022-09-25T06:32:17.316Z,100.0
2022-09-25T06:33:16.790Z,100.0
2022-09-25T06:34:17.243Z,100.0
2022-09-25T06:35:16.709Z,100.0
2022-09-25T06:36:17.174Z,100.0
2022-09-25T06:37:16.642Z,100.0
2022-09-25T06:38:17.108Z,100.0
2022-09-25T06:39:16.566Z,100.0
2022-09-25T06:40:17.187Z,100.0
2022-09-25T06:41:16.666Z,100.0
2022-09-25T06:42:17.234Z,100.0
2022-09-25T06:43:16.680Z,99.8
2022-09-25T06:44:17.114Z,99.9
2022-09-25T06:45:16.599Z,99.9
2022-09-25T06:46:17.112Z,99.8
2022-09-25T06:47:22.530Z,99.8
2022-09-25T06:48:17.165Z,99.8
2022-09-25T06:49:16.642Z,99.8
2022-09-25T06:50:17.108Z,99.9
2022-09-25T06:51:16.617Z,99.9
2022-09-25T06:52:17.130Z,99.9
2022-09-25T06:53:16.577Z,99.8
2022-09-25T06:54:17.042Z,99.8
2022-09-25T06:55:16.483Z,99.8
2022-09-25T06:56:16.920Z,99.7
2022-09-25T06:57:17.365Z,99.8
2022-09-25T06:58:16.800Z,99.8
2022-09-25T06:59:17.236Z,99.8
2022-09-25T07:00:16.682Z,99.8
2022-09-25T07:01:17.228Z,99.8
2022-09-25T07:02:17.132Z,99.8
2022-09-25T07:03:16.681Z,99.8
2022-09-25T07:04:17.147Z,99.8
2022-09-25T07:05:16.582Z,99.7
2022-09-25T07:06:17.031Z,99.8
2022-09-25T07:07:16.474Z,99.7
2022-09-25T07:08:16.927Z,99.7
2022-09-25T07:09:17.412Z,99.7
2022-09-25T07:10:16.854Z,99.7
2022-09-25T07:11:17.276Z,99.7
2022-09-25T07:12:16.747Z,99.6
2022-09-25T07:13:17.198Z,99.5
2022-09-25T07:14:16.644Z,99.6
2022-09-25T07:15:17.092Z,99.8
2022-09-25T07:16:16.705Z,99.6
2022-09-25T07:17:17.280Z,99.6
2022-09-25T07:18:16.723Z,99.6
2022-09-25T07:19:17.180Z,99.5
2022-09-25T07:20:16.650Z,99.5
2022-09-25T07:21:17.112Z,99.5
2022-09-25T07:22:16.592Z,99.5
2022-09-25T07:23:17.040Z,99.5
2022-09-25T07:24:16.460Z,99.3
2022-09-25T07:25:16.915Z,99.2
2022-09-25T07:26:17.338Z,99.2
2022-09-25T07:27:16.802Z,99.2
2022-09-25T07:28:17.220Z,99.2
2022-09-25T07:29:16.675Z,99.1
2022-09-25T07:30:17.097Z,99.1
2022-09-25T07:31:16.895Z,99.2
2022-09-25T07:32:16.705Z,99.0
2022-09-25T07:33:17.189Z,99.0
2022-09-25T07:34:16.650Z,99.0
2022-09-25T07:35:17.114Z,99.0
2022-09-25T07:36:16.586Z,99.0
2022-09-25T07:37:17.068Z,99.0
2022-09-25T07:38:16.540Z,98.8
2022-09-25T07:39:18.966Z,98.8
2022-09-25T07:40:16.600Z,98.9
2022-09-25T07:41:17.055Z,98.7
2022-09-25T07:42:16.615Z,98.7
2022-09-25T07:43:17.036Z,98.7
2022-09-25T07:44:30.189Z,98.7
2022-09-25T07:45:16.885Z,98.7
2022-09-25T07:46:17.475Z,98.5
2022-09-25T07:47:17.009Z,98.6
2022-09-25T07:48:16.520Z,98.8
2022-09-25T07:49:17.010Z,98.8
2022-09-25T07:50:16.488Z,98.7
2022-09-25T07:51:16.973Z,98.8
2022-09-25T07:52:16.564Z,98.8
2022-09-25T07:53:17.027Z,98.7
2022-09-25T07:54:16.470Z,98.5
2022-09-25T07:55:16.893Z,98.5
2022-09-25T07:56:17.316Z,98.5
2022-09-25T07:57:16.788Z,98.4
2022-09-25T07:58:17.215Z,98.3
2022-09-25T07:59:16.632Z,98.3
2022-09-25T08:00:17.091Z,98.2
2022-09-25T08:01:16.608Z,98.2
2022-09-25T08:02:16.887Z,98.2
2022-09-25T08:03:17.659Z,98.0
2022-09-25T08:04:17.196Z,97.8
2022-09-25T08:05:16.817Z,97.4
2022-09-25T08:06:17.366Z,97.7
2022-09-25T08:07:16.837Z,97.3
2022-09-25T08:08:17.253Z,97.4
2022-09-25T08:09:16.688Z,97.5
2022-09-25T08:10:17.128Z,97.5
2022-09-25T08:11:16.575Z,97.3
2022-09-25T08:12:16.506Z,97.3
2022-09-25T08:13:16.959Z,97.2
2022-09-25T08:14:17.426Z,97.1
2022-09-25T08:15:16.865Z,96.8
2022-09-25T08:16:17.492Z,97.1
2022-09-25T08:17:17.025Z,96.8
2022-09-25T08:18:16.490Z,96.7
2022-09-25T08:19:16.954Z,96.6
2022-09-25T08:20:17.704Z,96.8
2022-09-25T08:21:17.203Z,96.8
2022-09-25T08:22:16.623Z,97.0
2022-09-25T08:23:17.048Z,96.5
2022-09-25T08:24:16.469Z,96.1
2022-09-25T08:25:16.917Z,96.0
2022-09-25T08:26:17.355Z,95.5
2022-09-25T08:27:16.819Z,95.8
2022-09-25T08:28:17.258Z,95.5
2022-09-25T08:29:16.729Z,95.3
2022-09-25T08:30:17.222Z,95.5
2022-09-25T08:31:16.841Z,95.7
2022-09-25T08:32:17.277Z,95.7
2022-09-25T08:33:16.768Z,95.7
2022-09-25T08:34:40.398Z,95.3
2022-09-25T08:35:17.151Z,95.3
2022-09-25T08:36:16.626Z,95.4
2022-09-25T08:37:17.129Z,95.7
2022-09-25T08:38:16.558Z,95.7
2022-09-25T08:39:16.982Z,95.9
2022-09-25T08:40:16.551Z,94.8
2022-09-25T08:41:16.987Z,94.9
2022-09-25T08:42:16.418Z,94.8
2022-09-25T08:43:16.853Z,94.9
2022-09-25T08:44:17.292Z,94.8
2022-09-25T08:45:22.381Z,95.4
2022-09-25T08:46:17.048Z,95.2
2022-09-25T08:47:20.067Z,95.2
2022-09-25T08:48:16.533Z,94.9
2022-09-25T08:49:17.007Z,95.1
2022-09-25T08:50:16.469Z,94.1
2022-09-25T08:51:16.957Z,94.0
2022-09-25T08:52:17.370Z,94.4
2022-09-25T08:53:16.804Z,94.5
2022-09-25T08:54:17.243Z,94.4
2022-09-25T08:55:16.725Z,94.1
2022-09-25T08:56:17.259Z,93.8
2022-09-25T08:57:16.690Z,93.8
2022-09-25T08:58:17.149Z,94.2
2022-09-25T08:59:16.570Z,94.1
2022-09-25T09:00:17.016Z,94.2
2022-09-25T09:01:16.527Z,94.2
2022-09-25T09:02:17.507Z,94.2
2022-09-25T09:03:16.989Z,94.3
2022-09-25T09:04:16.473Z,94.4
2022-09-25T09:05:16.947Z,93.8
2022-09-25T09:06:17.426Z,93.5
2022-09-25T09:07:28.467Z,93.5
2022-09-25T09:08:17.036Z,93.5
2022-09-25T09:09:16.468Z,94.2
2022-09-25T09:10:16.890Z,94.2
2022-09-25T09:11:17.327Z,93.8
2022-09-25T09:12:16.997Z,93.8
2022-09-25T09:13:16.431Z,93.9
2022-09-25T09:14:16.882Z,94.2
2022-09-25T09:15:17.414Z,93.8
2022-09-25T09:16:16.945Z,94.2
2022-09-25T09:17:16.461Z,94.3
2022-09-25T09:18:16.921Z,94.1
2022-09-25T09:19:17.391Z,94.2
2022-09-25T09:20:16.903Z,94.2
2022-09-25T09:21:17.384Z,94.4
2022-09-25T09:22:17.135Z,94.2
2022-09-25T09:23:16.559Z,94.3
2022-09-25T09:24:17.000Z,94.3
2022-09-25T09:25:16.417Z,94.7
2022-09-25T09:26:16.878Z,94.5
2022-09-25T09:27:17.312Z,94.7
2022-09-25T09:28:16.728Z,94.8
2022-09-25T09:29:17.252Z,94.9
2022-09-25T09:30:17.018Z,94.7
2022-09-25T09:31:16.602Z,94.8
2022-09-25T09:32:16.707Z,94.4
2022-09-25T09:33:17.158Z,94.2
2022-09-25T09:34:16.636Z,94.3
2022-09-25T09:35:17.085Z,94.2
2022-09-25T09:36:16.526Z,93.7
2022-09-25T09:37:16.952Z,93.9
2022-09-25T09:38:17.371Z,93.5
2022-09-25T09:39:16.788Z,93.2
2022-09-25T09:40:17.572Z,93.5
2022-09-25T09:41:17.124Z,93.5
2022-09-25T09:42:17.317Z,93.3
2022-09-25T09:43:16.746Z,92.8
2022-09-25T09:44:17.199Z,93.0
2022-09-25T09:45:16.663Z,92.2
2022-09-25T09:46:17.185Z,92.6
2022-09-25T09:47:16.685Z,92.3
2022-09-25T09:48:17.196Z,92.0
2022-09-25T09:49:16.645Z,91.8
2022-09-25T09:50:17.119Z,91.5
2022-09-25T09:51:16.553Z,91.7
2022-09-25T09:52:16.892Z,91.7
2022-09-25T09:53:17.313Z,91.3
2022-09-25T09:54:16.755Z,91.1
2022-09-25T09:55:17.184Z,91.7
2022-09-25T09:56:16.625Z,91.9
2022-09-25T09:57:17.085Z,91.4
2022-09-25T09:58:16.561Z,90.9
2022-09-25T09:59:17.036Z,90.3
2022-09-25T10:00:16.614Z,90.3
2022-09-25T10:01:40.636Z,90.7
2022-09-25T10:02:16.908Z,90.1
2022-09-25T10:03:17.632Z,89.8
2022-09-25T10:04:17.143Z,89.5
2022-09-25T10:05:16.597Z,90.0
2022-09-25T10:06:22.725Z,89.8
2022-09-25T10:07:17.219Z,89.5
2022-09-25T10:08:16.649Z,88.2
2022-09-25T10:09:17.092Z,86.9
2022-09-25T10:10:16.779Z,86.3
2022-09-25T10:11:17.215Z,86.9
2022-09-25T10:12:16.502Z,87.3
2022-09-25T10:13:16.983Z,86.3
2022-09-25T10:14:16.434Z,86.9
2022-09-25T10:15:16.921Z,87.2
2022-09-25T10:16:17.538Z,87.6
2022-09-25T10:17:17.068Z,88.3
2022-09-25T10:18:16.555Z,88.2
2022-09-25T10:19:17.014Z,87.8
2022-09-25T10:20:16.457Z,87.2
2022-09-25T10:21:16.895Z,86.9
2022-09-25T10:22:17.435Z,86.0
2022-09-25T10:23:16.918Z,84.8
2022-09-25T10:24:17.341Z,83.6
2022-09-25T10:25:16.799Z,84.2
2022-09-25T10:26:17.222Z,84.5
2022-09-25T10:27:16.693Z,84.7
2022-09-25T10:28:17.151Z,83.8
2022-09-25T10:29:16.633Z,83.2
2022-09-25T10:30:17.102Z,83.6
2022-09-25T10:31:16.663Z,84.0
2022-09-25T10:32:16.764Z,84.6
2022-09-25T10:33:17.298Z,84.9
2022-09-25T10:34:16.760Z,84.4
2022-09-25T10:35:17.196Z,84.1
2022-09-25T10:36:16.642Z,83.2
2022-09-25T10:37:17.079Z,83.4
2022-09-25T10:38:16.520Z,84.5
2022-09-25T10:39:42.630Z,84.2
2022-09-25T10:40:16.520Z,84.5
2022-09-25T10:41:16.991Z,82.8
2022-09-25T10:42:17.346Z,82.3
2022-09-25T10:43:16.824Z,82.0
2022-09-25T10:44:17.289Z,82.1
2022-09-25T10:45:16.775Z,81.9
2022-09-25T10:46:17.375Z,81.9
2022-09-25T10:47:16.848Z,82.3
2022-09-25T10:48:17.303Z,82.7
2022-09-25T10:49:16.788Z,82.5
2022-09-25T10:50:17.234Z,82.8
2022-09-25T10:51:16.677Z,82.8
2022-09-25T10:52:17.082Z,82.6
2022-09-25T10:53:16.508Z,83.5
2022-09-25T10:54:16.973Z,84.4
2022-09-25T10:55:17.400Z,84.6
2022-09-25T10:56:16.832Z,84.6
2022-09-25T10:57:17.312Z,84.7
2022-09-25T10:58:16.774Z,85.2
2022-09-25T10:59:17.644Z,84.2
2022-09-25T11:00:17.270Z,84.8
2022-09-25T11:01:16.884Z,84.4
2022-09-25T11:02:17.516Z,84.1
2022-09-25T11:03:17.647Z,84.5
2022-09-25T11:04:17.138Z,84.3
2022-09-25T11:05:16.611Z,84.0
2022-09-25T11:06:17.039Z,84.8
2022-09-25T11:07:16.468Z,85.8
2022-09-25T11:08:16.895Z,84.8
2022-09-25T11:09:17.350Z,85.2
2022-09-25T11:10:16.771Z,85.3
2022-09-25T11:11:17.223Z,85.4
2022-09-25T11:12:17.160Z,85.7
2022-09-25T11:13:16.666Z,86.8
2022-09-25T11:14:17.124Z,86.2
2022-09-25T11:15:16.861Z,87.2
2022-09-25T11:16:17.426Z,87.3
2022-09-25T11:17:16.966Z,86.8
2022-09-25T11:18:17.469Z,86.6
2022-09-25T11:19:17.174Z,85.0
2022-09-25T11:20:16.850Z,85.0
2022-09-25T11:21:17.314Z,84.5
2022-09-25T11:22:16.671Z,84.5
2022-09-25T11:23:17.154Z,84.1
2022-09-25T11:24:16.584Z,85.1
2022-09-25T11:25:17.022Z,84.8
2022-09-25T11:26:16.461Z,85.5
2022-09-25T11:27:17.014Z,85.5
2022-09-25T11:28:16.769Z,86.7
2022-09-25T11:29:17.697Z,88.0
2022-09-25T11:30:17.267Z,90.2
2022-09-25T11:31:16.862Z,90.6
2022-09-25T11:32:16.763Z,91.7
2022-09-25T11:33:17.244Z,92.0
2022-09-25T11:34:16.673Z,94.2
2022-09-25T11:35:17.168Z,94.8
2022-09-25T11:36:16.610Z,95.4
2022-09-25T11:37:17.048Z,96.2
2022-09-25T11:38:16.502Z,96.8
2022-09-25T11:39:16.934Z,97.1
2022-09-25T11:40:17.484Z,97.3
2022-09-25T11:41:16.937Z,97.7
2022-09-25T11:42:16.681Z,97.7
2022-09-25T11:43:17.180Z,97.8
2022-09-25T11:44:16.682Z,97.7
2022-09-25T11:45:17.152Z,97.6
2022-09-25T11:46:16.773Z,97.7
2022-09-25T11:47:17.308Z,97.9
2022-09-25T11:48:16.802Z,98.0
2022-09-25T11:49:17.975Z,98.3
2022-09-25T11:50:16.757Z,98.3
2022-09-25T11:51:17.177Z,98.4
2022-09-25T11:52:16.980Z,98.5
2022-09-25T11:53:16.397Z,98.5
2022-09-25T11:54:34.373Z,98.7
2022-09-25T11:55:17.109Z,98.5
2022-09-25T11:56:16.535Z,98.7
2022-09-25T11:57:16.993Z,98.7
2022-09-25T11:58:16.458Z,98.7
2022-09-25T11:59:16.915Z,98.6
2022-09-25T12:00:17.438Z,98.9
2022-09-25T12:01:17.005Z,99.0
2022-09-25T12:02:17.519Z,98.8
2022-09-25T12:03:17.001Z,98.8
2022-09-25T12:04:16.446Z,98.8
2022-09-25T12:05:16.893Z,98.7
2022-09-25T12:06:17.342Z,98.7
2022-09-25T12:07:16.762Z,98.7
2022-09-25T12:08:17.191Z,98.7
2022-09-25T12:09:16.621Z,98.7
2022-09-25T12:10:17.045Z,98.4
2022-09-25T12:11:16.511Z,98.3
2022-09-25T12:12:17.005Z,98.4
2022-09-25T12:13:16.450Z,98.5
2022-09-25T12:14:16.931Z,98.6
2022-09-25T12:15:17.580Z,98.6
2022-09-25T12:16:17.182Z,98.7
2022-09-25T12:17:16.696Z,98.7
2022-09-25T12:18:17.135Z,98.5
2022-09-25T12:19:16.557Z,98.4
2022-09-25T12:20:16.993Z,98.4
2022-09-25T12:21:16.423Z,98.5
2022-09-25T12:22:16.950Z,98.6
2022-09-25T12:23:17.395Z,98.7
2022-09-25T12:24:16.814Z,98.8
2022-09-25T12:25:17.310Z,98.8
2022-09-25T12:26:16.777Z,98.4
2022-09-25T12:27:17.267Z,98.3
2022-09-25T12:28:16.738Z,98.2
2022-09-25T12:29:17.190Z,98.3
2022-09-25T12:30:16.926Z,98.3
2022-09-25T12:31:17.492Z,98.0
2022-09-25T12:32:16.989Z,98.0
2022-09-25T12:33:16.466Z,97.9
2022-09-25T12:34:16.899Z,98.0
2022-09-25T12:35:17.356Z,97.7
2022-09-25T12:36:16.811Z,97.8
2022-09-25T12:37:17.228Z,97.7
2022-09-25T12:38:16.668Z,97.6
2022-09-25T12:39:17.370Z,97.4
2022-09-25T12:40:16.983Z,97.3
2022-09-25T12:41:16.449Z,97.5
2022-09-25T12:42:16.743Z,97.2
2022-09-25T12:43:17.239Z,97.1
2022-09-25T12:44:16.750Z,97.0
2022-09-25T12:45:17.209Z,97.2
2022-09-25T12:46:16.865Z,97.3
2022-09-25T12:47:17.342Z,97.5
2022-09-25T12:48:16.759Z,97.5
2022-09-25T12:49:17.221Z,97.2
2022-09-25T12:50:16.664Z,97.2
2022-09-25T12:51:17.079Z,97.5
2022-09-25T12:52:16.496Z,97.7
2022-09-25T12:53:16.937Z,97.7
2022-09-25T12:54:17.378Z,97.8
2022-09-25T12:55:16.855Z,97.7
2022-09-25T12:56:17.307Z,97.4
2022-09-25T12:57:16.767Z,97.3
2022-09-25T12:58:17.261Z,97.5
2022-09-25T12:59:16.741Z,97.7
2022-09-25T13:00:17.219Z,97.7
2022-09-25T13:01:17.191Z,98.0
2022-09-25T13:02:16.704Z,98.1
2022-09-25T13:03:17.178Z,98.2
2022-09-25T13:04:16.601Z,98.1
2022-09-25T13:05:22.096Z,98.1